sensor_id;sensor_type;location;lat;lon;timestamp;P1;durP1;ratioP1;P2;durP2;ratioP2
10945;SDS011;5525;42.648;23.368;2023-04-23T00:00:37;7.72;;;4.97;;
10945;SDS011;5525;42.648;23.368;2023-04-23T00:03:06;7.10;;;4.53;;
10945;SDS011;5525;42.648;23.368;2023-04-23T00:05:34;5.55;;;5.03;;
10945;SDS011;5525;42.648;23.368;2023-04-23T00:08:03;5.55;;;5.03;;
10945;SDS011;5525;42.648;23.368;2023-04-23T00:10:31;5.22;;;4.72;;
10945;SDS011;5525;42.648;23.368;2023-04-23T00:12:58;5.82;;;5.22;;
10945;SDS011;5525;42.648;23.368;2023-04-23T00:15:25;7.85;;;4.80;;
10945;SDS011;5525;42.648;23.368;2023-04-23T00:17:52;7.20;;;4.90;;
10945;SDS011;5525;42.648;23.368;2023-04-23T00:20:19;6.85;;;4.70;;
10945;SDS011;5525;42.648;23.368;2023-04-23T00:22:46;5.88;;;5.18;;
10945;SDS011;5525;42.648;23.368;2023-04-23T00:25:15;6.03;;;5.00;;
10945;SDS011;5525;42.648;23.368;2023-04-23T00:27:41;6.18;;;5.15;;
10945;SDS011;5525;42.648;23.368;2023-04-23T00:30:08;7.30;;;5.07;;
10945;SDS011;5525;42.648;23.368;2023-04-23T00:32:35;7.97;;;5.07;;
10945;SDS011;5525;42.648;23.368;2023-04-23T00:35:02;6.70;;;5.45;;
10945;SDS011;5525;42.648;23.368;2023-04-23T00:37:29;7.68;;;5.20;;
10945;SDS011;5525;42.648;23.368;2023-04-23T00:39:56;5.78;;;4.93;;
10945;SDS011;5525;42.648;23.368;2023-04-23T00:42:24;7.07;;;5.30;;
10945;SDS011;5525;42.648;23.368;2023-04-23T00:44:52;6.15;;;5.25;;
10945;SDS011;5525;42.648;23.368;2023-04-23T00:47:19;6.18;;;5.55;;
10945;SDS011;5525;42.648;23.368;2023-04-23T00:49:47;7.05;;;5.22;;
10945;SDS011;5525;42.648;23.368;2023-04-23T00:52:14;6.25;;;5.20;;
10945;SDS011;5525;42.648;23.368;2023-04-23T00:54:41;5.97;;;5.38;;
10945;SDS011;5525;42.648;23.368;2023-04-23T00:57:08;5.70;;;5.00;;
10945;SDS011;5525;42.648;23.368;2023-04-23T00:59:37;6.25;;;5.43;;
10945;SDS011;5525;42.648;23.368;2023-04-23T01:02:04;6.00;;;5.30;;
10945;SDS011;5525;42.648;23.368;2023-04-23T01:04:31;6.53;;;5.40;;
10945;SDS011;5525;42.648;23.368;2023-04-23T01:06:58;6.60;;;5.30;;
10945;SDS011;5525;42.648;23.368;2023-04-23T01:09:25;6.15;;;5.28;;
10945;SDS011;5525;42.648;23.368;2023-04-23T01:11:52;7.28;;;5.10;;
10945;SDS011;5525;42.648;23.368;2023-04-23T01:14:20;6.03;;;4.90;;
10945;SDS011;5525;42.648;23.368;2023-04-23T01:16:48;7.93;;;6.88;;
10945;SDS011;5525;42.648;23.368;2023-04-23T01:19:16;6.78;;;5.43;;
10945;SDS011;5525;42.648;23.368;2023-04-23T01:21:43;5.32;;;4.78;;
10945;SDS011;5525;42.648;23.368;2023-04-23T01:24:12;6.45;;;5.10;;
10945;SDS011;5525;42.648;23.368;2023-04-23T01:26:38;8.00;;;5.18;;
10945;SDS011;5525;42.648;23.368;2023-04-23T01:29:05;8.23;;;5.57;;
10945;SDS011;5525;42.648;23.368;2023-04-23T01:31:32;8.38;;;5.35;;
10945;SDS011;5525;42.648;23.368;2023-04-23T01:33:59;7.70;;;6.00;;
10945;SDS011;5525;42.648;23.368;2023-04-23T01:36:27;8.15;;;6.03;;
10945;SDS011;5525;42.648;23.368;2023-04-23T01:38:53;8.25;;;5.90;;
10945;SDS011;5525;42.648;23.368;2023-04-23T01:41:21;7.78;;;5.78;;
10945;SDS011;5525;42.648;23.368;2023-04-23T01:43:48;10.20;;;5.93;;
10945;SDS011;5525;42.648;23.368;2023-04-23T01:46:16;6.13;;;5.28;;
10945;SDS011;5525;42.648;23.368;2023-04-23T01:48:42;7.05;;;5.43;;
10945;SDS011;5525;42.648;23.368;2023-04-23T01:51:09;11.73;;;6.45;;
10945;SDS011;5525;42.648;23.368;2023-04-23T01:53:36;7.07;;;5.95;;
10945;SDS011;5525;42.648;23.368;2023-04-23T01:56:02;6.57;;;5.55;;
10945;SDS011;5525;42.648;23.368;2023-04-23T01:58:32;5.97;;;5.30;;
10945;SDS011;5525;42.648;23.368;2023-04-23T02:00:58;7.25;;;5.63;;
10945;SDS011;5525;42.648;23.368;2023-04-23T02:03:25;5.57;;;4.97;;
10945;SDS011;5525;42.648;23.368;2023-04-23T02:05:54;7.35;;;5.30;;
10945;SDS011;5525;42.648;23.368;2023-04-23T02:08:21;6.13;;;5.40;;
10945;SDS011;5525;42.648;23.368;2023-04-23T02:10:48;8.65;;;5.90;;
10945;SDS011;5525;42.648;23.368;2023-04-23T02:13:14;8.57;;;5.63;;
10945;SDS011;5525;42.648;23.368;2023-04-23T02:15:42;6.57;;;5.85;;
10945;SDS011;5525;42.648;23.368;2023-04-23T02:18:09;7.40;;;5.60;;
10945;SDS011;5525;42.648;23.368;2023-04-23T02:20:36;7.15;;;5.50;;
10945;SDS011;5525;42.648;23.368;2023-04-23T02:23:05;8.07;;;6.32;;
10945;SDS011;5525;42.648;23.368;2023-04-23T02:25:32;8.13;;;5.68;;
10945;SDS011;5525;42.648;23.368;2023-04-23T02:27:58;7.47;;;5.53;;
10945;SDS011;5525;42.648;23.368;2023-04-23T02:30:29;6.68;;;5.97;;
10945;SDS011;5525;42.648;23.368;2023-04-23T02:32:57;6.32;;;5.72;;
10945;SDS011;5525;42.648;23.368;2023-04-23T02:35:24;6.45;;;5.80;;
10945;SDS011;5525;42.648;23.368;2023-04-23T02:37:50;6.68;;;5.68;;
10945;SDS011;5525;42.648;23.368;2023-04-23T02:40:18;6.60;;;5.45;;
10945;SDS011;5525;42.648;23.368;2023-04-23T02:42:45;8.23;;;6.40;;
10945;SDS011;5525;42.648;23.368;2023-04-23T02:45:11;8.82;;;5.60;;
10945;SDS011;5525;42.648;23.368;2023-04-23T02:47:38;6.43;;;5.50;;
10945;SDS011;5525;42.648;23.368;2023-04-23T02:50:06;6.97;;;5.65;;
10945;SDS011;5525;42.648;23.368;2023-04-23T02:52:34;6.60;;;5.90;;
10945;SDS011;5525;42.648;23.368;2023-04-23T02:55:00;6.93;;;5.80;;
10945;SDS011;5525;42.648;23.368;2023-04-23T02:57:27;6.63;;;5.78;;
10945;SDS011;5525;42.648;23.368;2023-04-23T02:59:54;9.30;;;5.95;;
10945;SDS011;5525;42.648;23.368;2023-04-23T03:02:21;9.13;;;6.18;;
10945;SDS011;5525;42.648;23.368;2023-04-23T03:04:47;9.18;;;6.38;;
10945;SDS011;5525;42.648;23.368;2023-04-23T03:07:16;9.23;;;6.60;;
10945;SDS011;5525;42.648;23.368;2023-04-23T03:09:43;7.30;;;6.55;;
10945;SDS011;5525;42.648;23.368;2023-04-23T03:12:10;8.43;;;6.22;;
10945;SDS011;5525;42.648;23.368;2023-04-23T03:14:36;9.13;;;6.32;;
10945;SDS011;5525;42.648;23.368;2023-04-23T03:17:03;8.93;;;6.60;;
10945;SDS011;5525;42.648;23.368;2023-04-23T03:19:30;8.68;;;6.70;;
10945;SDS011;5525;42.648;23.368;2023-04-23T03:21:57;6.78;;;6.10;;
10945;SDS011;5525;42.648;23.368;2023-04-23T03:24:25;7.97;;;6.13;;
10945;SDS011;5525;42.648;23.368;2023-04-23T03:26:51;7.57;;;6.50;;
10945;SDS011;5525;42.648;23.368;2023-04-23T03:29:18;7.63;;;6.82;;
10945;SDS011;5525;42.648;23.368;2023-04-23T03:31:45;10.57;;;6.68;;
10945;SDS011;5525;42.648;23.368;2023-04-23T03:34:11;9.90;;;7.03;;
10945;SDS011;5525;42.648;23.368;2023-04-23T03:36:38;8.63;;;6.65;;
10945;SDS011;5525;42.648;23.368;2023-04-23T03:39:05;8.43;;;6.78;;
10945;SDS011;5525;42.648;23.368;2023-04-23T03:41:34;8.23;;;6.90;;
10945;SDS011;5525;42.648;23.368;2023-04-23T03:44:00;8.02;;;7.18;;
10945;SDS011;5525;42.648;23.368;2023-04-23T03:46:27;8.98;;;7.50;;
10945;SDS011;5525;42.648;23.368;2023-04-23T03:48:54;8.30;;;7.43;;
10945;SDS011;5525;42.648;23.368;2023-04-23T03:51:20;10.25;;;6.55;;
10945;SDS011;5525;42.648;23.368;2023-04-23T03:53:48;9.15;;;6.95;;
10945;SDS011;5525;42.648;23.368;2023-04-23T03:56:15;8.18;;;7.32;;
10945;SDS011;5525;42.648;23.368;2023-04-23T03:58:43;9.27;;;6.80;;
10945;SDS011;5525;42.648;23.368;2023-04-23T04:01:10;9.88;;;6.90;;
10945;SDS011;5525;42.648;23.368;2023-04-23T04:03:37;7.43;;;6.60;;
10945;SDS011;5525;42.648;23.368;2023-04-23T04:06:04;9.60;;;7.15;;
10945;SDS011;5525;42.648;23.368;2023-04-23T04:08:31;8.63;;;6.43;;
10945;SDS011;5525;42.648;23.368;2023-04-23T04:10:58;7.68;;;6.82;;
10945;SDS011;5525;42.648;23.368;2023-04-23T04:13:25;9.18;;;7.57;;
10945;SDS011;5525;42.648;23.368;2023-04-23T04:15:53;9.35;;;7.25;;
10945;SDS011;5525;42.648;23.368;2023-04-23T04:18:20;8.73;;;7.65;;
10945;SDS011;5525;42.648;23.368;2023-04-23T04:20:46;7.80;;;7.00;;
10945;SDS011;5525;42.648;23.368;2023-04-23T04:23:15;8.00;;;6.93;;
10945;SDS011;5525;42.648;23.368;2023-04-23T04:25:41;7.32;;;6.50;;
10945;SDS011;5525;42.648;23.368;2023-04-23T04:28:09;7.57;;;6.72;;
10945;SDS011;5525;42.648;23.368;2023-04-23T04:30:36;11.45;;;6.72;;
10945;SDS011;5525;42.648;23.368;2023-04-23T04:33:04;8.95;;;7.40;;
10945;SDS011;5525;42.648;23.368;2023-04-23T04:35:32;9.00;;;7.57;;
10945;SDS011;5525;42.648;23.368;2023-04-23T04:37:59;7.93;;;7.10;;
10945;SDS011;5525;42.648;23.368;2023-04-23T04:40:26;9.18;;;6.82;;
10945;SDS011;5525;42.648;23.368;2023-04-23T04:42:53;6.85;;;6.25;;
10945;SDS011;5525;42.648;23.368;2023-04-23T04:45:21;7.10;;;6.20;;
10945;SDS011;5525;42.648;23.368;2023-04-23T04:47:49;6.95;;;6.25;;
10945;SDS011;5525;42.648;23.368;2023-04-23T04:50:18;6.50;;;5.75;;
10945;SDS011;5525;42.648;23.368;2023-04-23T04:52:44;6.50;;;5.70;;
10945;SDS011;5525;42.648;23.368;2023-04-23T04:55:11;5.80;;;5.15;;
10945;SDS011;5525;42.648;23.368;2023-04-23T04:57:38;7.13;;;6.13;;
10945;SDS011;5525;42.648;23.368;2023-04-23T05:00:17;6.30;;;5.70;;
10945;SDS011;5525;42.648;23.368;2023-04-23T05:02:47;6.28;;;5.68;;
10945;SDS011;5525;42.648;23.368;2023-04-23T05:05:14;6.63;;;5.78;;
10945;SDS011;5525;42.648;23.368;2023-04-23T05:07:42;6.13;;;5.63;;
10945;SDS011;5525;42.648;23.368;2023-04-23T05:10:09;6.25;;;5.65;;
10945;SDS011;5525;42.648;23.368;2023-04-23T05:12:36;5.60;;;5.15;;
10945;SDS011;5525;42.648;23.368;2023-04-23T05:15:06;6.75;;;5.55;;
10945;SDS011;5525;42.648;23.368;2023-04-23T05:17:33;6.22;;;5.60;;
10945;SDS011;5525;42.648;23.368;2023-04-23T05:20:00;7.30;;;5.63;;
10945;SDS011;5525;42.648;23.368;2023-04-23T05:22:27;6.03;;;5.45;;
10945;SDS011;5525;42.648;23.368;2023-04-23T05:24:55;5.68;;;5.18;;
10945;SDS011;5525;42.648;23.368;2023-04-23T05:27:22;6.13;;;5.53;;
10945;SDS011;5525;42.648;23.368;2023-04-23T05:29:49;6.82;;;5.40;;
10945;SDS011;5525;42.648;23.368;2023-04-23T05:32:15;6.55;;;5.57;;
10945;SDS011;5525;42.648;23.368;2023-04-23T05:34:42;5.78;;;5.28;;
10945;SDS011;5525;42.648;23.368;2023-04-23T05:37:08;6.28;;;5.05;;
10945;SDS011;5525;42.648;23.368;2023-04-23T05:39:35;5.90;;;4.88;;
10945;SDS011;5525;42.648;23.368;2023-04-23T05:42:04;7.05;;;5.88;;
10945;SDS011;5525;42.648;23.368;2023-04-23T05:44:30;5.63;;;5.03;;
10945;SDS011;5525;42.648;23.368;2023-04-23T05:46:57;8.13;;;5.15;;
10945;SDS011;5525;42.648;23.368;2023-04-23T05:49:24;7.25;;;5.13;;
10945;SDS011;5525;42.648;23.368;2023-04-23T05:51:51;7.85;;;5.30;;
10945;SDS011;5525;42.648;23.368;2023-04-23T05:54:18;6.30;;;5.70;;
10945;SDS011;5525;42.648;23.368;2023-04-23T05:56:44;7.95;;;5.72;;
10945;SDS011;5525;42.648;23.368;2023-04-23T05:59:12;7.13;;;5.82;;
10945;SDS011;5525;42.648;23.368;2023-04-23T06:01:39;6.13;;;5.50;;
10945;SDS011;5525;42.648;23.368;2023-04-23T06:04:06;6.25;;;5.38;;
10945;SDS011;5525;42.648;23.368;2023-04-23T06:06:33;7.30;;;5.90;;
10945;SDS011;5525;42.648;23.368;2023-04-23T06:09:00;6.20;;;5.30;;
10945;SDS011;5525;42.648;23.368;2023-04-23T06:11:26;11.55;;;5.60;;
10945;SDS011;5525;42.648;23.368;2023-04-23T06:13:53;6.25;;;5.60;;
10945;SDS011;5525;42.648;23.368;2023-04-23T06:16:22;6.82;;;5.68;;
10945;SDS011;5525;42.648;23.368;2023-04-23T06:18:48;7.63;;;5.28;;
10945;SDS011;5525;42.648;23.368;2023-04-23T06:21:15;5.38;;;4.88;;
10945;SDS011;5525;42.648;23.368;2023-04-23T06:23:42;6.47;;;5.10;;
10945;SDS011;5525;42.648;23.368;2023-04-23T06:26:09;6.10;;;5.28;;
10945;SDS011;5525;42.648;23.368;2023-04-23T06:28:35;6.63;;;5.20;;
10945;SDS011;5525;42.648;23.368;2023-04-23T06:31:03;7.60;;;5.75;;
10945;SDS011;5525;42.648;23.368;2023-04-23T06:33:32;6.75;;;5.30;;
10945;SDS011;5525;42.648;23.368;2023-04-23T06:36:00;6.05;;;5.43;;
10945;SDS011;5525;42.648;23.368;2023-04-23T06:38:27;5.90;;;5.38;;
10945;SDS011;5525;42.648;23.368;2023-04-23T06:40:54;7.63;;;5.75;;
10945;SDS011;5525;42.648;23.368;2023-04-23T06:43:20;6.60;;;6.00;;
10945;SDS011;5525;42.648;23.368;2023-04-23T06:45:47;8.10;;;6.18;;
10945;SDS011;5525;42.648;23.368;2023-04-23T06:48:14;6.72;;;6.00;;
10945;SDS011;5525;42.648;23.368;2023-04-23T06:50:43;10.05;;;7.05;;
10945;SDS011;5525;42.648;23.368;2023-04-23T06:53:10;7.05;;;5.57;;
10945;SDS011;5525;42.648;23.368;2023-04-23T06:55:37;6.25;;;5.65;;
10945;SDS011;5525;42.648;23.368;2023-04-23T06:58:04;8.90;;;5.88;;
10945;SDS011;5525;42.648;23.368;2023-04-23T07:00:31;7.47;;;5.82;;
10945;SDS011;5525;42.648;23.368;2023-04-23T07:02:58;9.55;;;7.70;;
10945;SDS011;5525;42.648;23.368;2023-04-23T07:05:25;9.27;;;6.55;;
10945;SDS011;5525;42.648;23.368;2023-04-23T07:07:53;7.13;;;5.60;;
10945;SDS011;5525;42.648;23.368;2023-04-23T07:10:19;5.90;;;5.35;;
10945;SDS011;5525;42.648;23.368;2023-04-23T07:12:46;6.45;;;5.40;;
10945;SDS011;5525;42.648;23.368;2023-04-23T07:15:13;6.50;;;5.38;;
10945;SDS011;5525;42.648;23.368;2023-04-23T07:17:40;7.50;;;5.70;;
10945;SDS011;5525;42.648;23.368;2023-04-23T07:20:07;5.97;;;5.35;;
10945;SDS011;5525;42.648;23.368;2023-04-23T07:22:34;6.30;;;5.10;;
10945;SDS011;5525;42.648;23.368;2023-04-23T07:25:02;7.43;;;5.55;;
10945;SDS011;5525;42.648;23.368;2023-04-23T07:27:30;6.82;;;5.35;;
10945;SDS011;5525;42.648;23.368;2023-04-23T07:29:56;5.95;;;5.00;;
10945;SDS011;5525;42.648;23.368;2023-04-23T07:32:23;5.55;;;4.93;;
10945;SDS011;5525;42.648;23.368;2023-04-23T07:34:52;7.28;;;5.55;;
10945;SDS011;5525;42.648;23.368;2023-04-23T07:37:20;5.53;;;5.00;;
10945;SDS011;5525;42.648;23.368;2023-04-23T07:39:46;5.40;;;4.85;;
10945;SDS011;5525;42.648;23.368;2023-04-23T07:42:14;5.60;;;4.75;;
10945;SDS011;5525;42.648;23.368;2023-04-23T07:44:41;5.15;;;4.65;;
10945;SDS011;5525;42.648;23.368;2023-04-23T07:47:08;5.55;;;4.82;;
10945;SDS011;5525;42.648;23.368;2023-04-23T07:49:35;6.30;;;5.20;;
10945;SDS011;5525;42.648;23.368;2023-04-23T07:52:02;6.28;;;5.18;;
10945;SDS011;5525;42.648;23.368;2023-04-23T07:54:28;5.82;;;5.32;;
10945;SDS011;5525;42.648;23.368;2023-04-23T07:56:55;6.28;;;5.78;;
10945;SDS011;5525;42.648;23.368;2023-04-23T07:59:23;7.65;;;6.22;;
10945;SDS011;5525;42.648;23.368;2023-04-23T08:01:50;7.28;;;6.10;;
10945;SDS011;5525;42.648;23.368;2023-04-23T08:04:17;6.95;;;6.35;;
10945;SDS011;5525;42.648;23.368;2023-04-23T08:06:43;8.20;;;6.65;;
10945;SDS011;5525;42.648;23.368;2023-04-23T08:09:10;7.03;;;6.32;;
10945;SDS011;5525;42.648;23.368;2023-04-23T08:11:37;7.30;;;6.13;;
10945;SDS011;5525;42.648;23.368;2023-04-23T08:14:03;7.70;;;5.75;;
10945;SDS011;5525;42.648;23.368;2023-04-23T08:16:31;6.40;;;5.78;;
10945;SDS011;5525;42.648;23.368;2023-04-23T08:18:58;6.25;;;5.57;;
10945;SDS011;5525;42.648;23.368;2023-04-23T08:21:25;6.47;;;5.88;;
10945;SDS011;5525;42.648;23.368;2023-04-23T08:23:53;5.80;;;5.30;;
10945;SDS011;5525;42.648;23.368;2023-04-23T08:26:19;6.72;;;6.13;;
10945;SDS011;5525;42.648;23.368;2023-04-23T08:28:46;7.05;;;6.18;;
10945;SDS011;5525;42.648;23.368;2023-04-23T08:31:13;6.00;;;5.50;;
10945;SDS011;5525;42.648;23.368;2023-04-23T08:33:41;8.20;;;5.78;;
10945;SDS011;5525;42.648;23.368;2023-04-23T08:36:08;8.23;;;6.03;;
10945;SDS011;5525;42.648;23.368;2023-04-23T08:38:35;6.78;;;6.20;;
10945;SDS011;5525;42.648;23.368;2023-04-23T08:41:01;7.30;;;5.72;;
10945;SDS011;5525;42.648;23.368;2023-04-23T08:43:33;7.95;;;6.35;;
10945;SDS011;5525;42.648;23.368;2023-04-23T08:46:09;8.95;;;5.65;;
10945;SDS011;5525;42.648;23.368;2023-04-23T08:48:37;7.25;;;5.30;;
10945;SDS011;5525;42.648;23.368;2023-04-23T08:51:07;5.78;;;5.15;;
10945;SDS011;5525;42.648;23.368;2023-04-23T08:53:35;7.25;;;5.45;;
10945;SDS011;5525;42.648;23.368;2023-04-23T08:56:03;6.10;;;5.50;;
10945;SDS011;5525;42.648;23.368;2023-04-23T08:58:31;7.03;;;5.55;;
10945;SDS011;5525;42.648;23.368;2023-04-23T09:00:59;8.45;;;6.72;;
10945;SDS011;5525;42.648;23.368;2023-04-23T09:03:26;8.43;;;5.65;;
10945;SDS011;5525;42.648;23.368;2023-04-23T09:05:54;20.15;;;6.68;;
10945;SDS011;5525;42.648;23.368;2023-04-23T09:08:22;8.10;;;5.78;;
10945;SDS011;5525;42.648;23.368;2023-04-23T09:10:49;6.00;;;5.30;;
10945;SDS011;5525;42.648;23.368;2023-04-23T09:13:19;7.55;;;5.10;;
10945;SDS011;5525;42.648;23.368;2023-04-23T09:15:47;5.43;;;4.93;;
10945;SDS011;5525;42.648;23.368;2023-04-23T09:18:14;6.45;;;5.13;;
10945;SDS011;5525;42.648;23.368;2023-04-23T09:20:42;6.22;;;5.00;;
10945;SDS011;5525;42.648;23.368;2023-04-23T09:23:12;7.88;;;5.97;;
10945;SDS011;5525;42.648;23.368;2023-04-23T09:25:41;5.55;;;5.03;;
10945;SDS011;5525;42.648;23.368;2023-04-23T09:28:08;6.10;;;5.50;;
10945;SDS011;5525;42.648;23.368;2023-04-23T09:30:37;10.02;;;5.82;;
10945;SDS011;5525;42.648;23.368;2023-04-23T09:33:05;6.93;;;5.78;;
10945;SDS011;5525;42.648;23.368;2023-04-23T09:35:32;6.55;;;5.50;;
10945;SDS011;5525;42.648;23.368;2023-04-23T09:38:00;8.15;;;5.65;;
10945;SDS011;5525;42.648;23.368;2023-04-23T09:40:31;6.28;;;5.40;;
10945;SDS011;5525;42.648;23.368;2023-04-23T09:43:00;6.22;;;5.20;;
10945;SDS011;5525;42.648;23.368;2023-04-23T09:45:29;5.40;;;5.00;;
10945;SDS011;5525;42.648;23.368;2023-04-23T09:47:59;7.68;;;5.15;;
10945;SDS011;5525;42.648;23.368;2023-04-23T09:50:32;7.45;;;5.10;;
10945;SDS011;5525;42.648;23.368;2023-04-23T09:53:00;5.40;;;4.90;;
10945;SDS011;5525;42.648;23.368;2023-04-23T09:55:28;4.90;;;4.50;;
10945;SDS011;5525;42.648;23.368;2023-04-23T09:58:01;6.68;;;5.10;;
10945;SDS011;5525;42.648;23.368;2023-04-23T10:00:31;5.57;;;4.80;;
10945;SDS011;5525;42.648;23.368;2023-04-23T10:02:59;7.10;;;5.22;;
10945;SDS011;5525;42.648;23.368;2023-04-23T10:05:26;6.60;;;5.00;;
10945;SDS011;5525;42.648;23.368;2023-04-23T10:07:54;5.60;;;5.10;;
10945;SDS011;5525;42.648;23.368;2023-04-23T10:10:21;9.35;;;5.03;;
10945;SDS011;5525;42.648;23.368;2023-04-23T10:12:50;12.82;;;5.05;;
10945;SDS011;5525;42.648;23.368;2023-04-23T10:15:19;4.97;;;4.47;;
10945;SDS011;5525;42.648;23.368;2023-04-23T10:17:48;5.88;;;4.90;;
10945;SDS011;5525;42.648;23.368;2023-04-23T10:20:16;6.65;;;5.00;;
10945;SDS011;5525;42.648;23.368;2023-04-23T10:22:43;5.90;;;4.88;;
10945;SDS011;5525;42.648;23.368;2023-04-23T10:25:10;7.85;;;5.53;;
10945;SDS011;5525;42.648;23.368;2023-04-23T10:27:38;6.28;;;4.88;;
10945;SDS011;5525;42.648;23.368;2023-04-23T10:30:07;6.57;;;5.10;;
10945;SDS011;5525;42.648;23.368;2023-04-23T10:32:36;7.55;;;5.03;;
10945;SDS011;5525;42.648;23.368;2023-04-23T10:35:04;5.05;;;4.60;;
10945;SDS011;5525;42.648;23.368;2023-04-23T10:37:32;5.63;;;4.70;;
10945;SDS011;5525;42.648;23.368;2023-04-23T10:40:00;5.68;;;4.70;;
10945;SDS011;5525;42.648;23.368;2023-04-23T10:42:33;8.73;;;5.00;;
10945;SDS011;5525;42.648;23.368;2023-04-23T10:45:00;6.25;;;4.82;;
10945;SDS011;5525;42.648;23.368;2023-04-23T10:47:27;5.70;;;4.35;;
10945;SDS011;5525;42.648;23.368;2023-04-23T10:49:55;5.97;;;4.57;;
10945;SDS011;5525;42.648;23.368;2023-04-23T10:52:22;4.93;;;4.25;;
10945;SDS011;5525;42.648;23.368;2023-04-23T10:54:49;6.18;;;4.43;;
10945;SDS011;5525;42.648;23.368;2023-04-23T10:57:23;7.18;;;4.55;;
10945;SDS011;5525;42.648;23.368;2023-04-23T10:59:50;4.88;;;4.45;;
10945;SDS011;5525;42.648;23.368;2023-04-23T11:02:18;6.47;;;4.70;;
10945;SDS011;5525;42.648;23.368;2023-04-23T11:04:46;8.07;;;5.20;;
10945;SDS011;5525;42.648;23.368;2023-04-23T11:07:20;6.05;;;4.57;;
10945;SDS011;5525;42.648;23.368;2023-04-23T11:09:51;6.13;;;4.47;;
10945;SDS011;5525;42.648;23.368;2023-04-23T11:12:29;4.78;;;4.25;;
10945;SDS011;5525;42.648;23.368;2023-04-23T11:14:57;5.55;;;4.60;;
10945;SDS011;5525;42.648;23.368;2023-04-23T11:20:21;5.45;;;4.70;;
10945;SDS011;5525;42.648;23.368;2023-04-23T11:22:51;9.45;;;4.60;;
10945;SDS011;5525;42.648;23.368;2023-04-23T11:25:18;6.10;;;4.63;;
10945;SDS011;5525;42.648;23.368;2023-04-23T11:27:46;4.80;;;4.35;;
10945;SDS011;5525;42.648;23.368;2023-04-23T11:30:15;4.43;;;4.03;;
10945;SDS011;5525;42.648;23.368;2023-04-23T11:32:43;4.60;;;4.20;;
10945;SDS011;5525;42.648;23.368;2023-04-23T11:35:12;5.63;;;4.32;;
10945;SDS011;5525;42.648;23.368;2023-04-23T11:37:40;4.78;;;4.28;;
10945;SDS011;5525;42.648;23.368;2023-04-23T11:40:10;5.45;;;4.30;;
10945;SDS011;5525;42.648;23.368;2023-04-23T11:42:43;5.35;;;4.07;;
10945;SDS011;5525;42.648;23.368;2023-04-23T11:45:17;4.93;;;3.83;;
10945;SDS011;5525;42.648;23.368;2023-04-23T11:47:45;5.97;;;4.10;;
10945;SDS011;5525;42.648;23.368;2023-04-23T11:50:17;14.70;;;4.78;;
10945;SDS011;5525;42.648;23.368;2023-04-23T11:52:44;4.38;;;4.07;;
10945;SDS011;5525;42.648;23.368;2023-04-23T11:55:12;4.40;;;3.90;;
10945;SDS011;5525;42.648;23.368;2023-04-23T11:57:41;4.78;;;3.90;;
10945;SDS011;5525;42.648;23.368;2023-04-23T12:00:10;4.97;;;3.60;;
10945;SDS011;5525;42.648;23.368;2023-04-23T12:02:48;5.25;;;3.85;;
10945;SDS011;5525;42.648;23.368;2023-04-23T12:05:15;4.15;;;3.78;;
10945;SDS011;5525;42.648;23.368;2023-04-23T12:07:46;4.30;;;3.90;;
10945;SDS011;5525;42.648;23.368;2023-04-23T12:10:17;4.40;;;3.95;;
10945;SDS011;5525;42.648;23.368;2023-04-23T12:12:48;4.65;;;3.78;;
10945;SDS011;5525;42.648;23.368;2023-04-23T12:15:15;4.85;;;3.65;;
10945;SDS011;5525;42.648;23.368;2023-04-23T12:17:46;4.43;;;3.72;;
10945;SDS011;5525;42.648;23.368;2023-04-23T12:20:15;4.25;;;3.33;;
10945;SDS011;5525;42.648;23.368;2023-04-23T12:22:43;4.82;;;3.50;;
10945;SDS011;5525;42.648;23.368;2023-04-23T12:25:09;5.93;;;3.35;;
10945;SDS011;5525;42.648;23.368;2023-04-23T12:27:39;5.05;;;3.58;;
10945;SDS011;5525;42.648;23.368;2023-04-23T12:30:07;5.50;;;3.55;;
10945;SDS011;5525;42.648;23.368;2023-04-23T12:32:35;4.28;;;3.67;;
10945;SDS011;5525;42.648;23.368;2023-04-23T12:35:03;5.15;;;3.75;;
10945;SDS011;5525;42.648;23.368;2023-04-23T12:37:34;3.42;;;3.13;;
10945;SDS011;5525;42.648;23.368;2023-04-23T12:40:01;4.38;;;3.42;;
10945;SDS011;5525;42.648;23.368;2023-04-23T12:42:31;5.97;;;3.50;;
10945;SDS011;5525;42.648;23.368;2023-04-23T12:45:05;5.25;;;3.78;;
10945;SDS011;5525;42.648;23.368;2023-04-23T12:47:33;4.28;;;3.70;;
10945;SDS011;5525;42.648;23.368;2023-04-23T12:49:59;13.18;;;4.30;;
10945;SDS011;5525;42.648;23.368;2023-04-23T12:52:28;6.38;;;3.10;;
10945;SDS011;5525;42.648;23.368;2023-04-23T12:54:54;3.50;;;3.20;;
10945;SDS011;5525;42.648;23.368;2023-04-23T12:57:23;3.95;;;3.47;;
10945;SDS011;5525;42.648;23.368;2023-04-23T12:59:50;3.80;;;3.10;;
10945;SDS011;5525;42.648;23.368;2023-04-23T13:02:20;4.82;;;3.40;;
10945;SDS011;5525;42.648;23.368;2023-04-23T13:04:47;6.03;;;3.70;;
10945;SDS011;5525;42.648;23.368;2023-04-23T13:07:13;4.20;;;3.60;;
10945;SDS011;5525;42.648;23.368;2023-04-23T13:09:40;5.10;;;3.35;;
10945;SDS011;5525;42.648;23.368;2023-04-23T13:12:07;6.38;;;3.55;;
10945;SDS011;5525;42.648;23.368;2023-04-23T13:14:34;5.70;;;3.20;;
10945;SDS011;5525;42.648;23.368;2023-04-23T13:17:00;3.40;;;3.03;;
10945;SDS011;5525;42.648;23.368;2023-04-23T13:19:28;3.92;;;3.22;;
10945;SDS011;5525;42.648;23.368;2023-04-23T13:21:55;3.85;;;3.28;;
10945;SDS011;5525;42.648;23.368;2023-04-23T13:24:22;5.15;;;3.55;;
10945;SDS011;5525;42.648;23.368;2023-04-23T13:26:48;23.27;;;5.07;;
10945;SDS011;5525;42.648;23.368;2023-04-23T13:29:15;4.57;;;3.45;;
10945;SDS011;5525;42.648;23.368;2023-04-23T13:31:42;3.55;;;3.25;;
10945;SDS011;5525;42.648;23.368;2023-04-23T13:34:08;4.60;;;3.40;;
10945;SDS011;5525;42.648;23.368;2023-04-23T13:36:37;3.97;;;3.38;;
10945;SDS011;5525;42.648;23.368;2023-04-23T13:39:05;3.53;;;3.22;;
10945;SDS011;5525;42.648;23.368;2023-04-23T13:41:33;4.88;;;3.30;;
10945;SDS011;5525;42.648;23.368;2023-04-23T13:43:59;5.43;;;3.95;;
10945;SDS011;5525;42.648;23.368;2023-04-23T13:46:26;4.60;;;3.53;;
10945;SDS011;5525;42.648;23.368;2023-04-23T13:48:53;7.45;;;3.78;;
10945;SDS011;5525;42.648;23.368;2023-04-23T13:51:20;4.40;;;3.40;;
10945;SDS011;5525;42.648;23.368;2023-04-23T13:53:48;3.90;;;3.60;;
10945;SDS011;5525;42.648;23.368;2023-04-23T13:56:15;4.22;;;3.60;;
10945;SDS011;5525;42.648;23.368;2023-04-23T13:58:41;4.45;;;3.45;;
10945;SDS011;5525;42.648;23.368;2023-04-23T14:01:10;3.17;;;2.97;;
10945;SDS011;5525;42.648;23.368;2023-04-23T14:03:39;3.70;;;3.40;;
10945;SDS011;5525;42.648;23.368;2023-04-23T14:06:06;5.70;;;3.90;;
10945;SDS011;5525;42.648;23.368;2023-04-23T14:08:33;6.85;;;4.28;;
10945;SDS011;5525;42.648;23.368;2023-04-23T14:11:02;3.67;;;3.38;;
10945;SDS011;5525;42.648;23.368;2023-04-23T14:13:29;3.80;;;3.25;;
10945;SDS011;5525;42.648;23.368;2023-04-23T14:15:56;3.78;;;3.20;;
10945;SDS011;5525;42.648;23.368;2023-04-23T14:18:22;4.75;;;3.17;;
10945;SDS011;5525;42.648;23.368;2023-04-23T14:20:49;4.30;;;3.53;;
10945;SDS011;5525;42.648;23.368;2023-04-23T14:23:34;7.30;;;3.63;;
10945;SDS011;5525;42.648;23.368;2023-04-23T14:26:19;4.35;;;3.20;;
10945;SDS011;5525;42.648;23.368;2023-04-23T14:28:49;3.08;;;2.88;;
10945;SDS011;5525;42.648;23.368;2023-04-23T14:31:17;5.63;;;3.53;;
10945;SDS011;5525;42.648;23.368;2023-04-23T14:33:44;3.63;;;3.33;;
10945;SDS011;5525;42.648;23.368;2023-04-23T14:36:12;4.90;;;3.40;;
10945;SDS011;5525;42.648;23.368;2023-04-23T14:38:39;5.63;;;4.50;;
10945;SDS011;5525;42.648;23.368;2023-04-23T14:41:06;6.53;;;4.38;;
10945;SDS011;5525;42.648;23.368;2023-04-23T14:43:34;7.25;;;5.22;;
10945;SDS011;5525;42.648;23.368;2023-04-23T14:46:01;12.00;;;4.93;;
10945;SDS011;5525;42.648;23.368;2023-04-23T14:48:28;6.97;;;5.03;;
10945;SDS011;5525;42.648;23.368;2023-04-23T14:50:56;8.27;;;5.30;;
10945;SDS011;5525;42.648;23.368;2023-04-23T14:53:22;6.82;;;5.38;;